Terminal Aerodrome Forecast
Issued by NWS

Home | Current Version | Previous Version | Text Only | Print | Product List | Glossary On
Versions: 1 2 3 4 5 6 7 8 9 10 11 12 13 14 15 16 17 18 19
342
FTUS43 KAPX 271720 AAC
TAFPLN
TAF AMD
KPLN 271720Z 2717/2818 09007KT P6SM BKN015 OVC045
      TEMPO 2718/2720 3SM SHRA BR OVC015
     FM272000 08008KT 5SM SHRA BR OVC030
     FM272300 08010KT 3SM SHRA BR OVC003
     FM280600 20006KT 2SM SHRADZ BR OVC008
     FM280800 26007KT 1SM SHRADZ BR BKN003
     FM281200 30009KT P6SM BKN003
     FM281500 30008KT P6SM SCT090=

USA.gov is the U.S. government's official web portal to all federal, state and local government web resources and services.